createdAt,value
2023-01-07T00:01:11.971Z,2.65
2023-01-07T00:03:58.932Z,3.03
2023-01-07T00:06:45.075Z,2.30
2023-01-07T00:09:30.859Z,2.70
2023-01-07T00:12:16.399Z,2.65
2023-01-07T00:15:01.855Z,2.40
2023-01-07T00:17:47.369Z,2.70
2023-01-07T00:20:32.807Z,3.00
2023-01-07T00:23:18.488Z,2.60
2023-01-07T00:26:10.306Z,2.42
2023-01-07T00:28:55.971Z,2.53
2023-01-07T00:31:41.737Z,2.55
2023-01-07T00:34:27.160Z,2.88
2023-01-07T00:37:31.011Z,2.63
2023-01-07T00:40:17.676Z,3.20
2023-01-07T00:43:05.051Z,3.30
2023-01-07T00:45:50.689Z,3.03
2023-01-07T00:48:36.513Z,2.72
2023-01-07T00:51:22.161Z,2.92
2023-01-07T00:54:07.799Z,2.38
2023-01-07T00:56:53.289Z,2.70
2023-01-07T00:59:38.931Z,1.80
2023-01-07T01:02:24.608Z,1.95
2023-01-07T01:05:11.543Z,1.98
2023-01-07T01:07:57.965Z,2.10
2023-01-07T01:10:44.365Z,2.10
2023-01-07T01:13:29.944Z,2.10
2023-01-07T01:16:17.821Z,2.13
2023-01-07T01:19:03.375Z,2.10
2023-01-07T01:21:48.835Z,2.40
2023-01-07T01:24:34.507Z,1.98
2023-01-07T01:27:20.830Z,2.00
2023-01-07T01:30:07.593Z,2.17
2023-01-07T01:32:55.737Z,1.87
2023-01-07T01:35:41.653Z,2.20
2023-01-07T01:38:29.743Z,2.05
2023-01-07T01:41:18.650Z,1.73
2023-01-07T01:47:22.023Z,1.95
2023-01-07T01:50:19.867Z,2.20
2023-01-07T01:53:25.921Z,2.70
2023-01-07T01:56:16.205Z,1.90
